sensor_id;sensor_type;location;lat;lon;timestamp;pressure;altitude;pressure_sealevel;temperature;humidity
66524;BME280;53350;52.210;5.160;2024-02-14T00:00:40;101262.66;;;9.79;89.32
66524;BME280;53350;52.210;5.160;2024-02-14T00:03:06;101269.50;;;9.95;88.48
66524;BME280;53350;52.210;5.160;2024-02-14T00:05:34;101266.03;;;9.98;89.76
66524;BME280;53350;52.210;5.160;2024-02-14T00:08:00;101266.94;;;9.86;90.11
66524;BME280;53350;52.210;5.160;2024-02-14T00:10:28;101263.47;;;9.93;89.67
66524;BME280;53350;52.210;5.160;2024-02-14T00:12:54;101253.22;;;9.87;89.89
66524;BME280;53350;52.210;5.160;2024-02-14T00:15:21;101259.19;;;9.98;89.35
66524;BME280;53350;52.210;5.160;2024-02-14T00:17:47;101261.78;;;9.97;90.57
66524;BME280;53350;52.210;5.160;2024-02-14T00:20:13;101259.19;;;9.97;90.17
66524;BME280;53350;52.210;5.160;2024-02-14T00:22:41;101263.47;;;10.05;89.44
66524;BME280;53350;52.210;5.160;2024-02-14T00:25:07;101254.00;;;10.09;89.58
66524;BME280;53350;52.210;5.160;2024-02-14T00:27:34;101236.03;;;10.00;90.83
66524;BME280;53350;52.210;5.160;2024-02-14T00:30:00;101241.16;;;10.04;90.63
66524;BME280;53350;52.210;5.160;2024-02-14T00:32:28;101247.13;;;10.06;89.71
66524;BME280;53350;52.210;5.160;2024-02-14T00:34:54;101246.25;;;10.12;90.28
66524;BME280;53350;52.210;5.160;2024-02-14T00:37:21;101240.25;;;10.12;90.33
66524;BME280;53350;52.210;5.160;2024-02-14T00:39:48;101235.13;;;10.12;91.21
66524;BME280;53350;52.210;5.160;2024-02-14T00:42:16;101237.69;;;10.15;90.72
66524;BME280;53350;52.210;5.160;2024-02-14T00:44:43;101238.53;;;10.14;90.79
66524;BME280;53350;52.210;5.160;2024-02-14T00:47:09;101238.53;;;10.14;91.62
66524;BME280;53350;52.210;5.160;2024-02-14T00:49:36;101230.81;;;10.20;91.13
66524;BME280;53350;52.210;5.160;2024-02-14T00:52:02;101227.34;;;10.22;91.46
66524;BME280;53350;52.210;5.160;2024-02-14T00:54:29;101230.75;;;10.26;91.18
66524;BME280;53350;52.210;5.160;2024-02-14T00:56:56;101235.16;;;10.05;92.83
66524;BME280;53350;52.210;5.160;2024-02-14T00:59:23;101233.34;;;10.24;91.85
66524;BME280;53350;52.210;5.160;2024-02-14T01:01:49;101229.91;;;10.27;91.97
66524;BME280;53350;52.210;5.160;2024-02-14T01:04:16;101221.31;;;10.37;91.42
66524;BME280;53350;52.210;5.160;2024-02-14T01:06:43;101216.16;;;10.36;92.31
66524;BME280;53350;52.210;5.160;2024-02-14T01:09:09;101225.59;;;10.41;91.64
66524;BME280;53350;52.210;5.160;2024-02-14T01:11:35;101227.25;;;10.52;90.80
66524;BME280;53350;52.210;5.160;2024-02-14T01:14:04;101218.66;;;10.54;91.01
66524;BME280;53350;52.210;5.160;2024-02-14T01:16:31;101222.94;;;10.49;92.73
66524;BME280;53350;52.210;5.160;2024-02-14T01:18:57;101213.47;;;10.59;90.95
66524;BME280;53350;52.210;5.160;2024-02-14T01:21:23;101224.63;;;10.55;92.53
66524;BME280;53350;52.210;5.160;2024-02-14T01:23:49;101210.88;;;10.60;91.56
66524;BME280;53350;52.210;5.160;2024-02-14T01:26:17;101220.31;;;10.57;92.68
66524;BME280;53350;52.210;5.160;2024-02-14T01:28:43;101224.59;;;10.59;92.08
66524;BME280;53350;52.210;5.160;2024-02-14T01:31:11;101224.56;;;10.66;91.27
66524;BME280;53350;52.210;5.160;2024-02-14T01:33:38;101219.38;;;10.69;91.69
66524;BME280;53350;52.210;5.160;2024-02-14T01:36:05;101217.63;;;10.75;91.39
66524;BME280;53350;52.210;5.160;2024-02-14T01:38:31;101218.47;;;10.76;91.54
66524;BME280;53350;52.210;5.160;2024-02-14T01:41:00;101216.81;;;10.72;92.22
66524;BME280;53350;52.210;5.160;2024-02-14T01:43:27;101223.63;;;10.77;91.66
66524;BME280;53350;52.210;5.160;2024-02-14T01:45:54;101222.72;;;10.85;91.12
66524;BME280;53350;52.210;5.160;2024-02-14T01:48:22;101224.41;;;10.87;91.55
66524;BME280;53350;52.210;5.160;2024-02-14T01:50:48;101218.44;;;10.85;91.56
66524;BME280;53350;52.210;5.160;2024-02-14T01:53:16;101215.81;;;10.90;91.06
66524;BME280;53350;52.210;5.160;2024-02-14T01:55:42;101222.66;;;10.92;90.76
66524;BME280;53350;52.210;5.160;2024-02-14T01:58:09;101220.13;;;10.88;91.86
66524;BME280;53350;52.210;5.160;2024-02-14T02:00:36;101226.94;;;10.92;91.45
66524;BME280;53350;52.210;5.160;2024-02-14T02:03:03;101221.78;;;10.92;91.58
66524;BME280;53350;52.210;5.160;2024-02-14T02:05:31;101226.94;;;10.98;91.58
66524;BME280;53350;52.210;5.160;2024-02-14T02:07:59;101222.56;;;11.03;91.31
66524;BME280;53350;52.210;5.160;2024-02-14T02:10:25;101224.31;;;11.01;92.00
66524;BME280;53350;52.210;5.160;2024-02-14T02:12:57;101226.88;;;11.04;91.59
66524;BME280;53350;52.210;5.160;2024-02-14T02:15:23;101233.78;;;11.02;92.22
66524;BME280;53350;52.210;5.160;2024-02-14T02:17:49;101234.56;;;11.09;91.65
66524;BME280;53350;52.210;5.160;2024-02-14T02:20:18;101231.13;;;11.10;91.58
66524;BME280;53350;52.210;5.160;2024-02-14T02:22:46;101228.59;;;11.05;91.71
66524;BME280;53350;52.210;5.160;2024-02-14T02:25:13;101232.84;;;11.08;92.25
66524;BME280;53350;52.210;5.160;2024-02-14T02:27:40;101238.00;;;11.09;92.02
66524;BME280;53350;52.210;5.160;2024-02-14T02:30:06;101238.00;;;11.08;91.84
66524;BME280;53350;52.210;5.160;2024-02-14T02:32:33;101235.44;;;11.06;92.22
66524;BME280;53350;52.210;5.160;2024-02-14T02:34:59;101232.81;;;11.12;91.73
66524;BME280;53350;52.210;5.160;2024-02-14T02:37:26;101238.91;;;11.05;92.16
66524;BME280;53350;52.210;5.160;2024-02-14T02:39:57;101239.69;;;11.12;92.04
66524;BME280;53350;52.210;5.160;2024-02-14T02:42:23;101232.88;;;11.05;92.81
66524;BME280;53350;52.210;5.160;2024-02-14T02:44:50;101249.16;;;11.11;91.85
66524;BME280;53350;52.210;5.160;2024-02-14T02:47:16;101246.59;;;11.08;92.45
66524;BME280;53350;52.210;5.160;2024-02-14T02:49:43;101247.41;;;11.13;92.29
66524;BME280;53350;52.210;5.160;2024-02-14T02:52:09;101238.78;;;11.19;91.89
66524;BME280;53350;52.210;5.160;2024-02-14T02:54:36;101235.38;;;11.16;92.42
66524;BME280;53350;52.210;5.160;2024-02-14T02:57:07;101236.22;;;11.16;92.71
66524;BME280;53350;52.210;5.160;2024-02-14T02:59:34;101241.34;;;11.21;91.82
66524;BME280;53350;52.210;5.160;2024-02-14T03:02:00;101250.72;;;11.28;91.60
66524;BME280;53350;52.210;5.160;2024-02-14T03:04:27;101251.63;;;11.22;92.02
66524;BME280;53350;52.210;5.160;2024-02-14T03:06:53;101252.56;;;11.13;92.55
66524;BME280;53350;52.210;5.160;2024-02-14T03:09:19;101254.25;;;11.18;91.81
66524;BME280;53350;52.210;5.160;2024-02-14T03:11:47;101251.66;;;11.19;92.28
66524;BME280;53350;52.210;5.160;2024-02-14T03:14:15;101237.09;;;11.13;92.05
66524;BME280;53350;52.210;5.160;2024-02-14T03:16:41;101257.69;;;11.21;91.92
66524;BME280;53350;52.210;5.160;2024-02-14T03:19:07;101260.25;;;11.23;92.58
66524;BME280;53350;52.210;5.160;2024-02-14T03:21:34;101255.84;;;11.31;91.93
66524;BME280;53350;52.210;5.160;2024-02-14T03:24:00;101256.69;;;11.35;91.80
66524;BME280;53350;52.210;5.160;2024-02-14T03:26:28;101252.38;;;11.35;91.76
66524;BME280;53350;52.210;5.160;2024-02-14T03:28:54;101257.53;;;11.40;91.59
66524;BME280;53350;52.210;5.160;2024-02-14T03:31:22;101259.22;;;11.39;91.38
66524;BME280;53350;52.210;5.160;2024-02-14T03:33:50;101265.22;;;11.43;91.44
66524;BME280;53350;52.210;5.160;2024-02-14T03:36:16;101270.38;;;11.44;91.57
66524;BME280;53350;52.210;5.160;2024-02-14T03:38:43;101251.44;;;11.45;91.48
66524;BME280;53350;52.210;5.160;2024-02-14T03:41:11;101264.31;;;11.45;91.42
66524;BME280;53350;52.210;5.160;2024-02-14T03:43:38;101267.75;;;11.47;91.41
66524;BME280;53350;52.210;5.160;2024-02-14T03:46:04;101273.75;;;11.51;91.47
66524;BME280;53350;52.210;5.160;2024-02-14T03:48:32;101278.88;;;11.54;91.54
66524;BME280;53350;52.210;5.160;2024-02-14T03:50:58;101275.41;;;11.57;91.64
66524;BME280;53350;52.210;5.160;2024-02-14T03:53:25;101272.84;;;11.55;91.70
66524;BME280;53350;52.210;5.160;2024-02-14T03:55:51;101273.72;;;11.56;91.68
66524;BME280;53350;52.210;5.160;2024-02-14T03:58:18;101274.53;;;11.58;91.81
66524;BME280;53350;52.210;5.160;2024-02-14T04:00:47;101275.41;;;11.57;91.55
66524;BME280;53350;52.210;5.160;2024-02-14T04:03:14;101266.75;;;11.64;91.81
66524;BME280;53350;52.210;5.160;2024-02-14T04:05:41;101268.53;;;11.57;92.03
66524;BME280;53350;52.210;5.160;2024-02-14T04:08:08;101278.84;;;11.59;91.91
66524;BME280;53350;52.210;5.160;2024-02-14T04:10:35;101279.66;;;11.62;91.96
66524;BME280;53350;52.210;5.160;2024-02-14T04:13:02;101293.44;;;11.60;91.58
66524;BME280;53350;52.210;5.160;2024-02-14T04:15:29;101288.22;;;11.68;91.97
66524;BME280;53350;52.210;5.160;2024-02-14T04:17:55;101288.19;;;11.71;91.68
66524;BME280;53350;52.210;5.160;2024-02-14T04:20:21;101290.72;;;11.74;92.02
66524;BME280;53350;52.210;5.160;2024-02-14T04:22:49;101295.91;;;11.72;92.01
66524;BME280;53350;52.210;5.160;2024-02-14T04:25:15;101295.06;;;11.73;91.57
66524;BME280;53350;52.210;5.160;2024-02-14T04:27:43;101293.25;;;11.78;91.60
66524;BME280;53350;52.210;5.160;2024-02-14T04:30:10;101300.94;;;11.84;91.91
66524;BME280;53350;52.210;5.160;2024-02-14T04:32:36;101300.97;;;11.81;91.58
66524;BME280;53350;52.210;5.160;2024-02-14T04:35:03;101302.72;;;11.81;91.61
66524;BME280;53350;52.210;5.160;2024-02-14T04:37:29;101310.41;;;11.86;91.57
66524;BME280;53350;52.210;5.160;2024-02-14T04:39:57;101320.78;;;11.81;91.56
66524;BME280;53350;52.210;5.160;2024-02-14T04:42:24;101307.81;;;11.87;91.71
66524;BME280;53350;52.210;5.160;2024-02-14T04:44:51;101312.13;;;11.87;91.39
66524;BME280;53350;52.210;5.160;2024-02-14T04:47:17;101310.38;;;11.89;91.30
66524;BME280;53350;52.210;5.160;2024-02-14T04:49:43;101316.38;;;11.92;91.18
66524;BME280;53350;52.210;5.160;2024-02-14T04:52:10;101313.81;;;11.94;91.37
66524;BME280;53350;52.210;5.160;2024-02-14T04:54:36;101313.81;;;11.94;91.51
66524;BME280;53350;52.210;5.160;2024-02-14T04:57:04;101315.53;;;11.95;91.10
66524;BME280;53350;52.210;5.160;2024-02-14T04:59:30;101322.38;;;11.94;91.05
66524;BME280;53350;52.210;5.160;2024-02-14T05:01:57;101323.22;;;11.98;91.21
66524;BME280;53350;52.210;5.160;2024-02-14T05:04:23;101331.84;;;11.95;91.03
66524;BME280;53350;52.210;5.160;2024-02-14T05:06:50;101325.81;;;11.92;91.44
66524;BME280;53350;52.210;5.160;2024-02-14T05:09:17;101325.84;;;11.90;91.29
66524;BME280;53350;52.210;5.160;2024-02-14T05:11:44;101332.72;;;11.91;91.33
66524;BME280;53350;52.210;5.160;2024-02-14T05:14:11;101335.28;;;11.93;91.25
66524;BME280;53350;52.210;5.160;2024-02-14T05:16:38;101333.59;;;11.95;91.23
66524;BME280;53350;52.210;5.160;2024-02-14T05:19:04;101331.81;;;11.98;91.42
66524;BME280;53350;52.210;5.160;2024-02-14T05:21:30;101328.34;;;12.01;91.47
66524;BME280;53350;52.210;5.160;2024-02-14T05:23:56;101334.38;;;12.00;91.07
66524;BME280;53350;52.210;5.160;2024-02-14T05:26:23;101342.06;;;12.06;91.03
66524;BME280;53350;52.210;5.160;2024-02-14T05:28:49;101337.78;;;12.05;91.08
66524;BME280;53350;52.210;5.160;2024-02-14T05:31:17;101334.34;;;12.05;90.90
66524;BME280;53350;52.210;5.160;2024-02-14T05:33:43;101336.97;;;12.00;90.94
66524;BME280;53350;52.210;5.160;2024-02-14T05:36:09;101343.81;;;12.04;91.17
66524;BME280;53350;52.210;5.160;2024-02-14T05:38:36;101346.38;;;12.06;90.94
66524;BME280;53350;52.210;5.160;2024-02-14T05:41:02;101348.09;;;12.07;90.94
66524;BME280;53350;52.210;5.160;2024-02-14T05:43:29;101346.38;;;12.07;91.30
66524;BME280;53350;52.210;5.160;2024-02-14T05:45:55;101350.66;;;12.10;90.95
66524;BME280;53350;52.210;5.160;2024-02-14T05:48:23;101355.78;;;12.13;91.08
66524;BME280;53350;52.210;5.160;2024-02-14T05:50:49;101354.94;;;12.11;90.77
66524;BME280;53350;52.210;5.160;2024-02-14T05:53:15;101348.88;;;12.12;90.65
66524;BME280;53350;52.210;5.160;2024-02-14T05:55:42;101355.75;;;12.14;90.67
66524;BME280;53350;52.210;5.160;2024-02-14T05:58:08;101355.78;;;12.11;90.89
66524;BME280;53350;52.210;5.160;2024-02-14T06:00:35;101364.41;;;12.10;90.88
66524;BME280;53350;52.210;5.160;2024-02-14T06:03:01;101368.72;;;12.10;91.07
66524;BME280;53350;52.210;5.160;2024-02-14T06:05:29;101371.31;;;12.10;91.33
66524;BME280;53350;52.210;5.160;2024-02-14T06:07:56;101373.03;;;12.08;90.81
66524;BME280;53350;52.210;5.160;2024-02-14T06:10:22;101369.56;;;12.10;90.94
66524;BME280;53350;52.210;5.160;2024-02-14T06:12:50;101373.84;;;12.13;91.01
66524;BME280;53350;52.210;5.160;2024-02-14T06:15:17;101370.38;;;12.15;90.92
66524;BME280;53350;52.210;5.160;2024-02-14T06:17:43;101385.03;;;12.13;91.37
66524;BME280;53350;52.210;5.160;2024-02-14T06:20:10;101378.13;;;12.15;91.16
66524;BME280;53350;52.210;5.160;2024-02-14T06:22:39;101386.72;;;12.17;91.25
66524;BME280;53350;52.210;5.160;2024-02-14T06:25:05;101392.81;;;12.10;91.41
66524;BME280;53350;52.210;5.160;2024-02-14T06:27:32;101386.78;;;12.10;91.50
66524;BME280;53350;52.210;5.160;2024-02-14T06:29:58;101388.47;;;12.14;91.11
66524;BME280;53350;52.210;5.160;2024-02-14T06:32:25;101392.75;;;12.18;91.29
66524;BME280;53350;52.210;5.160;2024-02-14T06:34:50;101405.63;;;12.21;91.46
66524;BME280;53350;52.210;5.160;2024-02-14T06:37:17;101396.16;;;12.22;91.18
66524;BME280;53350;52.210;5.160;2024-02-14T06:39:44;101402.13;;;12.24;90.92
66524;BME280;53350;52.210;5.160;2024-02-14T06:42:11;101400.47;;;12.20;91.38
66524;BME280;53350;52.210;5.160;2024-02-14T06:44:37;101404.75;;;12.22;91.33
66524;BME280;53350;52.210;5.160;2024-02-14T06:47:03;101411.63;;;12.23;91.37
66524;BME280;53350;52.210;5.160;2024-02-14T06:49:30;101415.94;;;12.24;91.50
66524;BME280;53350;52.210;5.160;2024-02-14T06:51:56;101411.59;;;12.25;91.28
66524;BME280;53350;52.210;5.160;2024-02-14T06:54:22;101411.59;;;12.25;91.50
66524;BME280;53350;52.210;5.160;2024-02-14T06:56:50;101409.06;;;12.22;91.27
66524;BME280;53350;52.210;5.160;2024-02-14T06:59:16;101413.38;;;12.23;91.16
66524;BME280;53350;52.210;5.160;2024-02-14T07:01:42;101416.81;;;12.20;91.73
66524;BME280;53350;52.210;5.160;2024-02-14T07:04:09;101415.09;;;12.21;91.34
66524;BME280;53350;52.210;5.160;2024-02-14T07:06:35;101421.97;;;12.22;91.26
66524;BME280;53350;52.210;5.160;2024-02-14T07:09:02;101421.13;;;12.21;91.45
66524;BME280;53350;52.210;5.160;2024-02-14T07:11:28;101422.00;;;12.20;91.33
66524;BME280;53350;52.210;5.160;2024-02-14T07:13:56;101430.56;;;12.25;91.54
66524;BME280;53350;52.210;5.160;2024-02-14T07:16:22;101420.19;;;12.28;91.43
66524;BME280;53350;52.210;5.160;2024-02-14T07:18:49;101426.22;;;12.29;91.51
66524;BME280;53350;52.210;5.160;2024-02-14T07:21:16;101427.91;;;12.33;91.45
66524;BME280;53350;52.210;5.160;2024-02-14T07:23:42;101433.94;;;12.30;91.39
66524;BME280;53350;52.210;5.160;2024-02-14T07:26:08;101434.03;;;12.23;91.42
66524;BME280;53350;52.210;5.160;2024-02-14T07:28:35;101441.72;;;12.27;91.82
66524;BME280;53350;52.210;5.160;2024-02-14T07:31:02;101432.25;;;12.26;91.82
66524;BME280;53350;52.210;5.160;2024-02-14T07:33:29;101435.72;;;12.22;91.57
66524;BME280;53350;52.210;5.160;2024-02-14T07:35:55;101438.34;;;12.19;92.17
66524;BME280;53350;52.210;5.160;2024-02-14T07:38:21;101442.59;;;12.26;91.67
66524;BME280;53350;52.210;5.160;2024-02-14T07:40:48;101433.19;;;12.19;91.70
66524;BME280;53350;52.210;5.160;2024-02-14T07:43:14;101435.72;;;12.22;91.62
66524;BME280;53350;52.210;5.160;2024-02-14T07:45:41;101434.84;;;12.25;91.83
66524;BME280;53350;52.210;5.160;2024-02-14T07:48:08;101438.31;;;12.25;91.76
66524;BME280;53350;52.210;5.160;2024-02-14T07:50:34;101450.34;;;12.26;92.30
66524;BME280;53350;52.210;5.160;2024-02-14T07:53:02;101438.28;;;12.24;92.22
66524;BME280;53350;52.210;5.160;2024-02-14T07:55:28;101449.50;;;12.24;92.35
66524;BME280;53350;52.210;5.160;2024-02-14T07:57:54;101447.78;;;12.23;92.43
66524;BME280;53350;52.210;5.160;2024-02-14T08:00:21;101448.63;;;12.27;92.18
66524;BME280;53350;52.210;5.160;2024-02-14T08:02:48;101454.63;;;12.29;92.19
66524;BME280;53350;52.210;5.160;2024-02-14T08:05:16;101454.59;;;12.30;92.16
66524;BME280;53350;52.210;5.160;2024-02-14T08:07:44;101464.00;;;12.39;92.03
66524;BME280;53350;52.210;5.160;2024-02-14T08:10:10;101453.69;;;12.36;92.01
66524;BME280;53350;52.210;5.160;2024-02-14T08:12:36;101462.25;;;12.41;91.88
66524;BME280;53350;52.210;5.160;2024-02-14T08:15:03;101460.53;;;12.42;91.74
66524;BME280;53350;52.210;5.160;2024-02-14T08:17:31;101457.09;;;12.41;91.81
66524;BME280;53350;52.210;5.160;2024-02-14T08:19:58;101463.06;;;12.45;91.78
66524;BME280;53350;52.210;5.160;2024-02-14T08:22:26;101463.06;;;12.46;91.68
66524;BME280;53350;52.210;5.160;2024-02-14T08:24:53;101466.50;;;12.48;91.66
66524;BME280;53350;52.210;5.160;2024-02-14T08:27:20;101463.00;;;12.51;91.70
66524;BME280;53350;52.210;5.160;2024-02-14T08:29:47;101469.03;;;12.53;91.46
66524;BME280;53350;52.210;5.160;2024-02-14T08:32:13;101470.78;;;12.49;92.04
66524;BME280;53350;52.210;5.160;2024-02-14T08:34:39;101468.22;;;12.48;91.59
66524;BME280;53350;52.210;5.160;2024-02-14T08:37:06;101469.97;;;12.44;91.90
66524;BME280;53350;52.210;5.160;2024-02-14T08:39:34;101472.56;;;12.44;91.94
66524;BME280;53350;52.210;5.160;2024-02-14T08:42:01;101476.00;;;12.45;91.54
66524;BME280;53350;52.210;5.160;2024-02-14T08:44:32;101472.47;;;12.52;91.94
66524;BME280;53350;52.210;5.160;2024-02-14T08:46:58;101473.28;;;12.56;91.75
66524;BME280;53350;52.210;5.160;2024-02-14T08:49:25;101480.19;;;12.57;91.79
66524;BME280;53350;52.210;5.160;2024-02-14T08:51:51;101479.34;;;12.55;91.70
66524;BME280;53350;52.210;5.160;2024-02-14T08:54:17;101479.28;;;12.61;91.73
66524;BME280;53350;52.210;5.160;2024-02-14T08:56:46;101476.66;;;12.64;91.60
66524;BME280;53350;52.210;5.160;2024-02-14T08:59:13;101475.84;;;12.62;91.72
66524;BME280;53350;52.210;5.160;2024-02-14T09:01:40;101484.44;;;12.61;91.66
66524;BME280;53350;52.210;5.160;2024-02-14T09:04:06;101479.38;;;12.53;92.29
66524;BME280;53350;52.210;5.160;2024-02-14T09:06:32;101476.72;;;12.58;91.99
66524;BME280;53350;52.210;5.160;2024-02-14T09:08:59;101481.81;;;12.64;91.70
66524;BME280;53350;52.210;5.160;2024-02-14T09:11:25;101495.63;;;12.63;91.95
66524;BME280;53350;52.210;5.160;2024-02-14T09:13:53;101490.41;;;12.67;91.69
66524;BME280;53350;52.210;5.160;2024-02-14T09:16:24;101494.72;;;12.65;91.99
66524;BME280;53350;52.210;5.160;2024-02-14T09:18:50;101499.88;;;12.67;91.76
66524;BME280;53350;52.210;5.160;2024-02-14T09:21:17;101493.03;;;12.66;91.92
66524;BME280;53350;52.210;5.160;2024-02-14T09:23:46;101498.19;;;12.66;91.77
66524;BME280;53350;52.210;5.160;2024-02-14T09:26:12;101501.59;;;12.69;91.96
66524;BME280;53350;52.210;5.160;2024-02-14T09:28:39;101504.16;;;12.71;91.87
66524;BME280;53350;52.210;5.160;2024-02-14T09:31:07;101500.72;;;12.72;92.08
66524;BME280;53350;52.210;5.160;2024-02-14T09:33:35;101513.63;;;12.74;91.76
66524;BME280;53350;52.210;5.160;2024-02-14T09:36:01;101507.59;;;12.73;92.14
66524;BME280;53350;52.210;5.160;2024-02-14T09:38:29;101500.72;;;12.72;92.40
66524;BME280;53350;52.210;5.160;2024-02-14T09:40:56;101499.81;;;12.75;92.06
66524;BME280;53350;52.210;5.160;2024-02-14T09:43:24;101497.25;;;12.73;92.63
66524;BME280;53350;52.210;5.160;2024-02-14T09:45:54;101500.72;;;12.70;92.17
66524;BME280;53350;52.210;5.160;2024-02-14T09:48:22;101506.75;;;12.71;92.47
66524;BME280;53350;52.210;5.160;2024-02-14T09:50:49;101516.22;;;12.72;92.39
66524;BME280;53350;52.210;5.160;2024-02-14T09:53:15;101513.53;;;12.80;92.01
66524;BME280;53350;52.210;5.160;2024-02-14T09:55:42;101500.59;;;12.81;91.80
66524;BME280;53350;52.210;5.160;2024-02-14T09:58:11;101506.66;;;12.80;92.87
66524;BME280;53350;52.210;5.160;2024-02-14T10:00:38;101517.78;;;12.85;92.03
66524;BME280;53350;52.210;5.160;2024-02-14T10:03:06;101515.19;;;12.87;92.02
66524;BME280;53350;52.210;5.160;2024-02-14T10:05:33;101518.63;;;12.91;91.77
66524;BME280;53350;52.210;5.160;2024-02-14T10:07:59;101521.22;;;12.86;92.00
66524;BME280;53350;52.210;5.160;2024-02-14T10:10:26;101510.91;;;12.83;92.67
66524;BME280;53350;52.210;5.160;2024-02-14T10:12:54;101513.50;;;12.83;92.21
66524;BME280;53350;52.210;5.160;2024-02-14T10:15:20;101514.41;;;12.82;92.46
66524;BME280;53350;52.210;5.160;2024-02-14T10:17:46;101521.22;;;12.86;92.07
66524;BME280;53350;52.210;5.160;2024-02-14T10:20:16;101516.00;;;12.94;92.07
66524;BME280;53350;52.210;5.160;2024-02-14T10:22:44;101519.41;;;12.94;92.55
66524;BME280;53350;52.210;5.160;2024-02-14T10:25:11;101520.25;;;12.98;92.25
66524;BME280;53350;52.210;5.160;2024-02-14T10:27:38;101524.56;;;12.96;92.73
66524;BME280;53350;52.210;5.160;2024-02-14T10:30:05;101521.94;;;12.99;92.52
66524;BME280;53350;52.210;5.160;2024-02-14T10:32:34;101522.88;;;12.93;92.75
66524;BME280;53350;52.210;5.160;2024-02-14T10:35:01;101521.91;;;13.02;92.17
66524;BME280;53350;52.210;5.160;2024-02-14T10:37:29;101521.09;;;13.00;92.87
66524;BME280;53350;52.210;5.160;2024-02-14T10:39:57;101530.53;;;13.02;92.82
66524;BME280;53350;52.210;5.160;2024-02-14T10:42:27;101534.81;;;13.07;92.12
66524;BME280;53350;52.210;5.160;2024-02-14T10:44:54;101539.06;;;13.12;91.87
66524;BME280;53350;52.210;5.160;2024-02-14T10:47:20;101522.66;;;13.13;91.86
66524;BME280;53350;52.210;5.160;2024-02-14T10:49:50;101525.22;;;13.15;92.27
66524;BME280;53350;52.210;5.160;2024-02-14T10:52:18;101529.56;;;13.11;92.27
66524;BME280;53350;52.210;5.160;2024-02-14T10:54:46;101533.88;;;13.14;92.41
66524;BME280;53350;52.210;5.160;2024-02-14T10:57:18;101527.78;;;13.15;92.17
66524;BME280;53350;52.210;5.160;2024-02-14T10:59:45;101522.63;;;13.15;92.55
66524;BME280;53350;52.210;5.160;2024-02-14T11:02:13;101520.91;;;13.15;92.09
66524;BME280;53350;52.210;5.160;2024-02-14T11:04:40;101530.31;;;13.22;92.27
66524;BME280;53350;52.210;5.160;2024-02-14T11:07:09;101522.50;;;13.26;92.56
66524;BME280;53350;52.210;5.160;2024-02-14T11:09:35;101519.03;;;13.25;92.62
66524;BME280;53350;52.210;5.160;2024-02-14T11:12:02;101519.88;;;13.29;92.50
66524;BME280;53350;52.210;5.160;2024-02-14T11:14:31;101518.13;;;13.31;92.42
66524;BME280;53350;52.210;5.160;2024-02-14T11:16:57;101513.84;;;13.28;92.51
66524;BME280;53350;52.210;5.160;2024-02-14T11:19:30;101516.41;;;13.31;92.12
66524;BME280;53350;52.210;5.160;2024-02-14T11:21:58;101515.50;;;13.37;92.12
66524;BME280;53350;52.210;5.160;2024-02-14T11:24:26;101504.22;;;13.39;92.17
66524;BME280;53350;52.210;5.160;2024-02-14T11:26:54;101508.50;;;13.42;92.19
66524;BME280;53350;52.210;5.160;2024-02-14T11:29:21;101508.50;;;13.42;92.29
66524;BME280;53350;52.210;5.160;2024-02-14T11:31:56;101511.97;;;13.44;91.98
66524;BME280;53350;52.210;5.160;2024-02-14T11:34:23;101508.44;;;13.50;92.12
66524;BME280;53350;52.210;5.160;2024-02-14T11:36:49;101510.09;;;13.52;91.84
66524;BME280;53350;52.210;5.160;2024-02-14T11:39:17;101511.78;;;13.56;92.01
66524;BME280;53350;52.210;5.160;2024-02-14T11:41:43;101509.19;;;13.56;91.73
66524;BME280;53350;52.210;5.160;2024-02-14T11:44:10;101501.59;;;13.44;92.25
66524;BME280;53350;52.210;5.160;2024-02-14T11:46:36;101501.50;;;13.50;92.42
66524;BME280;53350;52.210;5.160;2024-02-14T11:49:05;101505.84;;;13.47;92.25
66524;BME280;53350;52.210;5.160;2024-02-14T11:51:32;101499.72;;;13.54;92.30
66524;BME280;53350;52.210;5.160;2024-02-14T11:54:00;101497.13;;;13.57;91.85
66524;BME280;53350;52.210;5.160;2024-02-14T11:56:29;101504.06;;;13.53;92.85
66524;BME280;53350;52.210;5.160;2024-02-14T11:58:59;101503.97;;;13.58;92.02
66524;BME280;53350;52.210;5.160;2024-02-14T12:01:25;101493.66;;;13.56;92.25
66524;BME280;53350;52.210;5.160;2024-02-14T12:03:52;101501.47;;;13.53;92.66
66524;BME280;53350;52.210;5.160;2024-02-14T12:06:19;101496.22;;;13.58;92.02
66524;BME280;53350;52.210;5.160;2024-02-14T12:08:46;101485.91;;;13.55;92.49
66524;BME280;53350;52.210;5.160;2024-02-14T12:11:12;101483.31;;;13.56;92.09
66524;BME280;53350;52.210;5.160;2024-02-14T12:13:38;101491.91;;;13.60;92.02
66524;BME280;53350;52.210;5.160;2024-02-14T12:16:08;101495.38;;;13.57;92.14
66524;BME280;53350;52.210;5.160;2024-02-14T12:18:35;101496.25;;;13.55;92.35
66524;BME280;53350;52.210;5.160;2024-02-14T12:21:04;101489.34;;;13.59;92.68
66524;BME280;53350;52.210;5.160;2024-02-14T12:23:34;101499.66;;;13.60;92.70
66524;BME280;53350;52.210;5.160;2024-02-14T12:26:01;101490.09;;;13.64;92.33
66524;BME280;53350;52.210;5.160;2024-02-14T12:28:28;101483.97;;;13.69;92.21
66524;BME280;53350;52.210;5.160;2024-02-14T12:30:55;101472.81;;;13.67;92.73
66524;BME280;53350;52.210;5.160;2024-02-14T12:33:22;101489.31;;;13.60;92.86
66524;BME280;53350;52.210;5.160;2024-02-14T12:35:49;101493.69;;;13.55;93.75
66524;BME280;53350;52.210;5.160;2024-02-14T12:38:17;101485.88;;;13.56;92.70
66524;BME280;53350;52.210;5.160;2024-02-14T12:40:45;101493.69;;;13.55;93.21
66524;BME280;53350;52.210;5.160;2024-02-14T12:43:12;101491.13;;;13.53;93.36
66524;BME280;53350;52.210;5.160;2024-02-14T12:45:39;101485.88;;;13.58;93.18
66524;BME280;53350;52.210;5.160;2024-02-14T12:48:06;101479.78;;;13.61;92.90